This is the latest recevied weather packets stored in our database for station/object YD2UMH-10. If no packets are shown the sender has not sent any weather packets the latest 10 day(s).
| Time | Temp. | Humidity | Pressure | Rain* | Wind** | Luminosity | Snow |
|---|---|---|---|---|---|---|---|
| 1777967977 | 38.89° C | 85% | 988 hPa | - | - | 0 W/m² | - |
| 1777967655 | 36.11° C | 95% | 988 hPa | - | - | 0 W/m² | - |
| 1777967333 | 37.22° C | 93% | 988 hPa | - | - | 0 W/m² | - |
| 1777967011 | 36.67° C | 94% | 988 hPa | - | - | 0 W/m² | - |
| 1777966689 | 38.33° C | 85% | 988 hPa | - | - | 0 W/m² | - |
| 1777966367 | 38.33° C | 86% | 988 hPa | - | - | 0 W/m² | - |
| 1777966045 | 36.67° C | 93% | 988 hPa | - | - | 0 W/m² | - |
| 1777965723 | 36.67° C | 90% | 988 hPa | - | - | 0 W/m² | - |
| 1777965401 | 37.78° C | 87% | 988 hPa | - | - | 0 W/m² | - |
| 1777965079 | 38.89° C | 81% | 988 hPa | - | - | 0 W/m² | - |
| 1777964757 | 37.22° C | 91% | 988 hPa | - | - | 0 W/m² | - |
| 1777964435 | 36.67° C | 94% | 988 hPa | - | - | 0 W/m² | - |
| 1777964113 | 37.22° C | 84% | 988 hPa | - | - | 0 W/m² | - |
| 1777963791 | 39.44° C | 81% | 988 hPa | - | - | 0 W/m² | - |
| 1777963469 | 37.78° C | 88% | 988 hPa | - | - | 0 W/m² | - |
| 1777963147 | 40.56° C | 76% | 988 hPa | - | - | 0 W/m² | - |
| 1777962825 | 41.11° C | 77% | 989 hPa | - | - | 0 W/m² | - |
| 1777962503 | 40° C | 83% | 989 hPa | - | - | 0 W/m² | - |
| 1777962181 | 39.44° C | 81% | 989 hPa | - | - | 0 W/m² | - |
| 1777961859 | 38.89° C | 90% | 989 hPa | - | - | 0 W/m² | - |
| 1777961537 | 36.67° C | 99% | 989 hPa | - | - | 0 W/m² | - |
| 1777961215 | 36.67° C | 94% | 989 hPa | - | - | 0 W/m² | - |
| 1777960897 | 37.22° C | 94% | 989 hPa | - | - | 0 W/m² | - |
| 1777960571 | 40° C | 84% | 989 hPa | - | - | 0 W/m² | - |
| 1777960249 | 38.89° C | 88% | 989 hPa | - | - | 0 W/m² | - |
* Rain since midnight (hover to see other rain measurements)
** Current wind speed in m/s (hover to see current wind gust speed)